Latest Weather Observations for Gabo Island

IDN60801

Issued at 11:02 pm EST Monday 31 August 2015 (issued every 30 minutes, with the page automatically refreshed every 10 minutes)

About weather observations | Map of weather stations | Latest weather observations for NSW | Other Formats
Station Details ID: 084016 Name: GABO ISLAND LIGHTHOUSE Lat: -37.57 Lon: 149.92 Height: 15.2 m
Data from the previous 72 hours. | See also: Recent months at Gabo Island
Date/Time
EST
Temp
°C
App
Temp
°C
Dew
Point
Rel
Hum
%
Delta-T
°C
Wind Press
QNH
hPa
Press
MSL
hPa
Rain
since 9 am
mm
Dir
 
Spd
km/h
Gust
km/h
Spd
kts
Gust
kts
31/11:00pm 10.0 2.2 8.1 88 0.9 W 39 48 21 26 1015.5 - 1.6
31/10:30pm 10.4 1.7 7.9 84 1.2 W 43 52 23 28 1015.5 - 1.6
31/10:00pm 10.3 2.1 8.0 86 1.1 W 41 50 22 27 1015.5 - 1.6
31/09:30pm 10.1 3.0 8.0 87 1.0 W 35 44 19 24 1015.8 - 1.6
31/09:00pm 10.1 2.7 8.2 88 0.9 W 37 48 20 26 1015.8 1015.8 1.6
31/08:30pm 10.3 2.9 8.2 87 1.0 W 37 48 20 26 1015.8 - 1.6
31/08:00pm 10.0 2.2 8.1 88 0.9 W 39 46 21 25 1015.7 - 1.6
31/07:30pm 10.3 3.0 8.7 90 0.8 W 37 48 20 26 1015.5 - 1.6
31/07:00pm 10.5 1.9 8.2 86 1.1 W 43 50 23 27 1015.5 - 1.6
31/06:30pm 9.8 2.1 8.6 92 0.6 W 39 48 21 26 1015.6 - 1.6
31/06:00pm 9.9 2.2 8.7 92 0.6 W 39 48 21 26 1015.6 1015.6 1.6
31/05:30pm 10.1 2.5 8.9 92 0.6 WSW 39 48 21 26 1015.7 - 1.4
31/05:00pm 10.2 2.1 8.6 90 0.8 WSW 41 50 22 27 1015.5 - 0.4
31/04:30pm 11.0 2.3 7.7 80 1.6 WSW 43 56 23 30 1015.3 - 0.0
31/04:00pm 11.7 3.0 8.5 81 1.6 WSW 44 57 24 31 1015.4 - 0.0
31/03:30pm 11.3 2.6 7.6 78 1.8 WSW 43 56 23 30 1015.2 - 0.0
31/03:00pm 11.8 2.6 8.1 78 1.8 WSW 46 56 25 30 1015.2 1015.2 0.0
31/02:30pm 11.8 3.0 8.1 78 1.8 WSW 44 56 24 30 1015.2 - 0.0
31/02:00pm 11.8 2.8 7.2 73 2.2 WSW 44 54 24 29 1015.4 - 0.0
31/01:30pm 12.1 3.5 8.0 76 2.0 WSW 43 56 23 30 1015.6 - 0.0
31/01:00pm 12.3 3.5 8.0 75 2.1 WSW 44 57 24 31 1015.9 - 0.0
31/12:30pm 12.4 3.2 7.9 74 2.2 WSW 46 59 25 32 1016.0 - 0.0
31/12:00pm 12.3 3.4 7.8 74 2.2 WSW 44 57 24 31 1016.3 1016.3 0.0
31/11:30am 12.1 2.9 8.0 76 2.0 WSW 46 59 25 32 1016.4 - 0.0
31/11:00am 11.2 2.7 8.6 84 1.3 WSW 43 56 23 30 1016.7 - 0.0
31/10:30am 11.6 2.5 8.3 80 1.6 WSW 46 57 25 31 1016.8 - 0.0
31/10:00am 10.7 1.9 8.0 83 1.3 WSW 44 56 24 30 1017.1 - 0.0
31/09:30am 10.8 1.4 8.6 86 1.1 WSW 48 57 26 31 1017.3 - 0.0
31/09:00am 10.1 1.3 8.2 88 0.9 WSW 44 52 24 28 1017.3 1017.3 2.6
31/08:30am 9.6 0.8 7.9 89 0.8 WSW 44 56 24 30 1017.2 - 2.6
31/08:00am 9.5 0.9 8.0 90 0.7 WSW 43 56 23 30 1017.3 - 2.6
31/07:30am 9.6 1.3 7.9 89 0.8 WSW 41 57 22 31 1017.3 - 2.6
31/07:00am 9.5 0.8 7.6 88 0.9 WSW 43 54 23 29 1017.2 - 2.6
31/06:30am 9.4 0.9 7.1 85 1.1 WSW 41 54 22 29 1017.1 - 2.6
31/06:00am 9.7 1.5 6.7 81 1.4 W 39 50 21 27 1016.9 1016.9 2.6
31/05:30am 9.6 1.4 6.6 81 1.4 W 39 50 21 27 1017.0 - 2.6
31/05:00am 9.6 1.4 6.4 80 1.5 W 39 48 21 26 1017.1 - 2.6
31/04:30am 9.8 1.2 6.6 80 1.5 W 41 54 22 29 1017.1 - 2.6
31/04:00am 9.9 1.3 6.7 80 1.5 W 41 50 22 27 1017.1 - 2.6
31/03:30am 9.9 2.5 6.9 81 1.4 W 35 43 19 23 1017.1 - 2.6
31/03:00am 9.7 2.3 6.7 81 1.4 W 35 43 19 23 1017.3 1017.3 2.6
31/02:30am 10.2 2.0 6.6 78 1.7 W 39 50 21 27 1017.6 - 2.6
31/02:00am 10.1 1.9 6.4 78 1.7 W 39 48 21 26 1018.0 - 2.6
31/01:30am 10.3 1.7 6.7 78 1.7 W 41 50 22 27 1018.5 - 2.6
31/01:00am 10.5 2.3 6.7 77 1.8 W 39 48 21 26 1018.7 - 2.6
31/12:30am 10.6 2.5 6.8 77 1.8 WSW 39 46 21 25 1019.0 - 2.6
31/12:00am 10.5 2.6 6.4 76 1.9 W 37 46 20 25 1019.1 1019.1 2.6
 
Date/Time
EST
Temp
°C
App
Temp
°C
Dew
Point
Rel
Hum
%
Delta-T
°C
Wind Press
QNH
hPa
Press
MSL
hPa
Rain
since 9 am
mm
Dir
 
Spd
km/h
Gust
km/h
Spd
kts
Gust
kts
30/11:30pm 10.4 2.6 6.5 77 1.8 W 37 44 20 24 1019.4 - 2.6
30/11:00pm 10.3 2.9 6.9 79 1.6 W 35 44 19 24 1019.6 - 2.6
30/10:30pm 10.4 3.1 7.2 80 1.5 W 35 44 19 24 1019.9 - 2.6
30/10:00pm 10.5 2.8 7.1 79 1.6 W 37 48 20 26 1020.1 - 2.6
30/09:30pm 10.4 2.7 7.2 80 1.5 W 37 50 20 27 1020.0 - 2.6
30/09:26pm 10.6 2.9 7.2 79 1.6 W 37 50 20 27 1020.1 - 2.6
30/09:06pm 11.0 2.3 7.7 80 1.6 WSW 43 61 23 33 1020.2 - 2.6
30/09:00pm 12.0 2.0 7.7 75 2.1 SW 50 61 27 33 1020.1 1020.0 2.6
30/08:30pm 11.9 1.6 8.0 77 1.9 SW 52 63 28 34 1019.9 - 2.6
30/08:00pm 11.7 0.6 8.2 79 1.7 SW 56 69 30 37 1019.8 - 2.6
30/07:30pm 11.5 0.0 8.7 83 1.4 SW 59 70 32 38 1019.8 - 2.6
30/07:00pm 11.7 0.3 7.6 76 2.0 SW 57 72 31 39 1019.6 - 2.6
30/06:30pm 11.5 0.1 7.6 77 1.9 SW 57 69 31 37 1019.4 - 2.6
30/06:00pm 11.4 0.9 8.8 84 1.3 SW 54 72 29 39 1019.2 1019.2 2.6
30/05:30pm 10.9 -0.5 8.9 87 1.0 SW 59 72 32 39 1019.2 - 2.6
30/05:00pm 10.8 -0.2 9.0 89 0.9 SW 57 70 31 38 1019.1 - 2.6
30/04:30pm 11.1 0.0 8.2 82 1.4 SW 56 69 30 37 1018.9 - 2.6
30/04:02pm 10.5 2.5 9.1 91 0.7 WSW 41 61 22 33 1019.2 - 2.6
30/04:00pm 10.7 2.8 9.3 91 0.7 WSW 41 54 22 29 1019.3 - 2.6
30/03:30pm 9.8 0.8 8.8 93 0.5 WSW 46 57 25 31 1019.3 - 2.6
30/03:00pm 10.0 1.4 9.0 93 0.5 WSW 44 57 24 31 1019.2 1019.2 1.4
30/02:30pm 10.6 2.0 9.0 90 0.8 WSW 44 57 24 31 1019.1 - 0.8
30/02:01pm 10.8 0.8 9.2 90 0.8 SW 52 70 28 38 1019.0 - 0.8
30/02:00pm 10.7 0.3 9.1 90 0.8 SW 54 70 29 38 1018.9 - 0.8
30/01:30pm 11.3 1.6 8.9 85 1.2 WSW 50 65 27 35 1018.5 - 0.8
30/01:00pm 11.1 0.7 9.1 87 1.0 WSW 54 72 29 39 1018.9 - 0.6
30/12:57pm 11.3 1.0 9.5 89 0.9 WSW 54 72 29 39 1019.0 - 0.6
30/12:30pm 11.1 0.7 9.3 89 0.9 WSW 54 67 29 36 1019.1 - 0.6
30/12:00pm 11.2 0.5 9.6 90 0.8 SW 56 69 30 37 1019.4 1019.5 0.4
30/11:30am 11.4 0.3 8.8 84 1.3 SW 57 69 31 37 1019.7 - 0.2
30/11:00am 11.5 0.7 9.1 85 1.2 SW 56 70 30 38 1019.9 - 0.2
30/10:30am 11.4 0.0 9.2 86 1.1 SSW 59 74 32 40 1020.1 - 0.2
30/10:00am 11.5 0.4 8.9 84 1.3 SSW 57 69 31 37 1020.0 - 0.0
30/09:30am 11.7 0.6 8.7 82 1.5 SW 57 69 31 37 1019.8 - 0.0
30/09:00am 11.4 0.0 9.2 86 1.1 SW 59 72 32 39 1019.8 1019.8 4.6
30/08:30am 11.8 0.9 9.0 83 1.4 SW 56 65 30 35 1019.7 - 4.6
30/08:21am 11.6 0.2 9.0 84 1.3 SW 59 78 32 42 1019.8 - 4.6
30/08:00am 11.7 0.4 9.3 85 1.2 SW 59 69 32 37 1019.6 - 4.6
30/07:30am 12.0 0.6 9.2 83 1.4 SW 59 72 32 39 1019.4 - 4.6
30/07:04am 11.6 2.7 9.2 85 1.2 WSW 46 65 25 35 1019.2 - 4.6
30/07:00am 11.1 2.3 9.7 91 0.7 WSW 46 57 25 31 1019.2 - 4.6
30/06:30am 11.3 1.8 9.7 90 0.8 SW 50 59 27 32 1018.9 - 4.6
30/06:00am 11.2 0.5 9.6 90 0.8 SW 56 67 30 36 1018.7 1018.8 4.4
30/05:30am 11.2 0.5 9.6 90 0.8 SW 56 67 30 36 1018.5 - 4.4
30/05:00am 11.2 1.7 9.8 91 0.7 SW 50 61 27 33 1018.6 - 3.8
30/04:30am 10.7 1.0 8.9 89 0.9 WSW 50 61 27 33 1018.6 - 3.6
30/04:00am 11.2 0.3 8.8 85 1.2 SW 56 67 30 36 1018.4 - 3.4
30/03:31am 11.4 0.9 9.0 85 1.2 SW 54 72 29 39 1018.4 - 3.4
30/03:30am 11.4 0.6 9.2 86 1.1 SW 56 72 30 39 1018.4 - 3.4
30/03:00am 11.9 1.8 8.9 82 1.5 SW 52 67 28 36 1018.5 1018.4 3.4
30/02:30am 11.6 1.6 9.2 85 1.2 SW 52 65 28 35 1018.6 - 3.4
30/02:00am 11.9 1.2 8.2 78 1.8 SW 54 65 29 35 1018.6 - 3.4
30/01:30am 11.9 1.0 8.7 81 1.6 SW 56 70 30 38 1018.9 - 3.4
30/01:00am 11.8 0.1 7.9 77 1.9 SW 59 70 32 38 1019.0 - 3.4
30/12:30am 11.9 0.6 8.0 77 1.9 SW 57 70 31 38 1019.1 - 3.4
30/12:13am 11.4 1.0 9.4 87 1.0 WSW 54 72 29 39 1019.2 - 3.4
30/12:00am 11.2 0.3 8.8 85 1.2 SW 56 67 30 36 1019.1 1019.1 3.4
 
Date/Time
EST
Temp
°C
App
Temp
°C
Dew
Point
Rel
Hum
%
Delta-T
°C
Wind Press
QNH
hPa
Press
MSL
hPa
Rain
since 9 am
mm
Dir
 
Spd
km/h
Gust
km/h
Spd
kts
Gust
kts
29/11:49pm 11.0 -1.1 9.2 89 0.9 SW 63 82 34 44 1019.1 - 3.4
29/11:47pm 10.9 -2.4 9.1 89 0.9 SW 69 82 37 44 1019.2 - 3.4
29/11:46pm 10.8 2.3 9.2 90 0.8 WSW 44 82 24 44 1019.2 - 3.4
29/11:32pm 10.9 2.5 9.1 89 0.9 WSW 43 61 23 33 1019.1 - 3.2
29/11:30pm 10.7 2.3 9.1 90 0.8 WSW 43 56 23 30 1019.2 - 3.2
29/11:00pm 10.9 2.0 9.1 89 0.9 WSW 46 59 25 32 1019.2 - 2.8
29/10:30pm 10.8 1.0 8.6 86 1.1 WSW 50 69 27 37 1019.2 - 2.6
29/10:23pm 11.0 1.2 8.6 85 1.2 WSW 50 69 27 37 1019.1 - 2.6
29/10:00pm 11.0 1.2 8.6 85 1.2 WSW 50 63 27 34 1019.1 - 2.6
29/09:30pm 11.3 1.9 8.9 85 1.2 WSW 48 63 26 34 1019.2 - 2.6
29/09:00pm 11.3 2.1 8.0 80 1.6 WSW 46 67 25 36 1019.2 1019.0 2.6
29/08:54pm 11.0 2.8 8.3 83 1.3 WSW 41 67 22 36 1019.1 - 2.6
29/08:30pm 10.8 2.4 9.0 89 0.9 WSW 43 52 23 28 1019.1 - 2.6
29/08:00pm 10.6 1.2 8.8 89 0.9 WSW 48 65 26 35 1019.0 - 2.0
29/07:44pm 10.9 1.9 8.9 87 1.0 WSW 46 69 25 37 1018.8 - 1.8
29/07:30pm 10.6 2.1 9.2 91 0.7 WSW 44 56 24 30 1018.9 - 1.8
29/07:00pm 10.4 2.3 8.6 89 0.9 W 41 54 22 29 1018.4 - 0.8
29/06:30pm 10.2 1.8 9.0 92 0.6 W 43 57 23 31 1018.3 - 0.8
29/06:00pm 10.7 0.4 8.2 84 1.2 W 52 63 28 34 1018.0 1017.9 0.8
29/05:30pm 10.1 0.3 8.5 90 0.8 W 50 63 27 34 1017.9 - 0.8
29/05:00pm 10.2 0.8 8.8 91 0.7 W 48 59 26 32 1017.8 - 0.8
29/04:30pm 10.0 0.5 8.4 90 0.8 W 48 61 26 33 1017.7 - 0.2
29/04:03pm 10.5 1.1 8.7 89 0.9 W 48 67 26 36 1017.5 - 0.0
29/04:00pm 10.2 -0.1 8.1 87 1.0 W 52 67 28 36 1017.4 - 0.0
29/03:30pm 11.4 1.2 6.8 73 2.2 W 50 65 27 35 1017.1 - 0.0
29/03:00pm 11.4 0.3 6.3 71 2.4 W 54 67 29 36 1017.1 1017.0 0.0
29/02:47pm 11.3 0.2 6.2 71 2.4 W 54 72 29 39 1017.1 - 0.0
29/02:30pm 10.9 0.4 5.7 70 2.4 W 50 65 27 35 1017.2 - 0.0
29/02:26pm 11.4 0.7 6.3 71 2.4 W 52 70 28 38 1017.3 - 0.0
29/02:00pm 11.7 0.9 6.2 69 2.6 W 52 69 28 37 1017.2 - 0.0
29/01:30pm 11.5 1.0 5.4 66 2.8 W 50 69 27 37 1017.3 - 0.0
29/01:09pm 11.2 1.4 5.1 66 2.8 W 46 65 25 35 1017.7 - 0.0
29/01:00pm 11.0 1.0 4.5 64 2.9 W 46 61 25 33 1018.0 - 0.0
29/12:45pm 10.7 0.3 4.4 65 2.8 W 48 72 26 39 1018.2 - 0.0
29/12:30pm 11.2 1.1 4.0 61 3.2 W 46 61 25 33 1018.4 - 0.0
29/12:00pm 11.0 0.5 3.7 60 3.2 W 48 65 26 35 1018.9 1018.9 0.0
29/11:30am 10.8 0.6 3.2 59 3.3 W 46 65 25 35 1019.2 - 0.0
29/11:05am 11.0 0.6 2.0 54 3.8 W 46 67 25 36 1019.4 - 0.0
29/11:00am 10.8 0.8 1.2 51 4.0 W 43 57 23 31 1019.4 - 0.0
29/10:30am 10.7 0.9 -0.3 46 4.4 W 41 54 22 29 1019.8 - 0.0
29/10:00am 10.4 1.1 0.3 49 4.1 W 39 50 21 27 1019.9 - 0.0
29/09:30am 9.8 1.1 -0.3 49 4.0 W 35 50 19 27 1020.5 - 0.0
29/09:00am 9.1 -0.9 1.9 60 3.0 W 44 59 24 32 1020.9 1020.8 1.4
29/08:30am 8.9 -1.9 2.2 63 2.8 W 48 61 26 33 1020.8 - 1.4
29/08:01am 8.7 -0.6 3.0 67 2.4 W 41 59 22 32 1020.9 - 1.4
29/08:00am 8.9 -0.3 3.6 69 2.3 W 41 54 22 29 1021.0 - 1.4
29/07:30am 8.1 -0.4 3.1 71 2.1 W 37 50 20 27 1020.8 - 1.4
29/07:00am 8.1 -0.3 3.9 75 1.8 W 37 48 20 26 1020.9 - 1.4
29/06:30am 7.4 1.1 3.6 77 1.6 WNW 26 37 14 20 1020.9 - 1.4
29/06:00am 7.4 1.6 4.4 81 1.3 WNW 24 37 13 20 1020.7 1020.8 1.4
29/05:30am 7.8 1.3 4.8 81 1.3 W 28 35 15 19 1020.8 - 1.4
29/05:00am 7.4 1.7 4.9 84 1.1 WNW 24 35 13 19 1020.7 - 1.4
29/04:30am 7.9 2.7 5.4 84 1.1 WNW 22 30 12 16 1020.8 - 1.4
29/04:00am 8.0 2.2 4.6 79 1.5 W 24 33 13 18 1021.0 - 1.4
29/03:30am 8.3 2.6 4.7 78 1.6 W 24 35 13 19 1021.2 - 1.4
29/03:00am 8.5 1.7 5.1 79 1.5 W 30 35 16 19 1021.3 1021.3 1.4
29/02:30am 8.8 2.2 5.9 82 1.3 W 30 35 16 19 1021.3 - 1.4
29/02:00am 8.7 3.7 6.5 86 1.0 W 22 30 12 16 1021.8 - 1.4
29/01:30am 8.9 2.4 6.7 86 1.0 WSW 30 37 16 20 1022.0 - 1.4
29/01:00am 9.3 3.0 7.6 89 0.8 WSW 30 39 16 21 1022.1 - 1.4
29/12:30am 9.3 4.9 7.6 89 0.8 W 20 28 11 15 1022.1 - 1.4
29/12:00am 9.4 4.6 7.3 87 1.0 W 22 26 12 14 1022.2 1022.3 1.4
 
Date/Time
EST
Temp
°C
App
Temp
°C
Dew
Point
Rel
Hum
%
Delta-T
°C
Wind Press
QNH
hPa
Press
MSL
hPa
Rain
since 9 am
mm
Dir
 
Spd
km/h
Gust
km/h
Spd
kts
Gust
kts
28/11:30pm 9.6 3.3 7.5 87 1.0 WSW 30 35 16 19 1022.3 - 1.4

Other Formats:

Comma delimited format used in spreadsheet applications
http://www.bom.gov.au/fwo/IDN60801/IDN60801.94933.axf

JavaScript Object Notation format (JSON) in row-major order
http://www.bom.gov.au/fwo/IDN60801/IDN60801.94933.json